createdAt,value
2022-12-04T00:00:15.378Z,-0.77
2022-12-04T00:00:50.338Z,-0.77
2022-12-04T00:01:24.361Z,-0.81
2022-12-04T00:01:56.582Z,-0.84
2022-12-04T00:02:32.882Z,-0.83
2022-12-04T00:03:05.110Z,-0.85
2022-12-04T00:03:37.750Z,-0.86
2022-12-04T00:04:13.472Z,-0.86
2022-12-04T00:04:45.661Z,-0.85
2022-12-04T00:05:17.841Z,-0.85
2022-12-04T00:05:52.521Z,-0.84
2022-12-04T00:06:25.583Z,-0.85
2022-12-04T00:06:59.045Z,-0.85
2022-12-04T00:07:34.201Z,-0.85
2022-12-04T00:08:06.533Z,-0.85
2022-12-04T00:08:39.307Z,-0.85
2022-12-04T00:09:14.143Z,-0.85
2022-12-04T00:09:48.830Z,-0.85
2022-12-04T00:10:20.922Z,-0.86
2022-12-04T00:10:55.607Z,-0.85
2022-12-04T00:11:30.486Z,-0.85
2022-12-04T00:12:05.159Z,-0.84
2022-12-04T00:12:37.249Z,-0.81
2022-12-04T00:13:09.553Z,-0.82
2022-12-04T00:13:44.797Z,-0.81
2022-12-04T00:14:16.943Z,-0.80
2022-12-04T00:15:23.341Z,-0.78
2022-12-04T00:15:45.186Z,-0.80
2022-12-04T00:16:19.265Z,-0.78
2022-12-04T00:16:51.514Z,-0.75
2022-12-04T00:17:26.266Z,-0.73
2022-12-04T00:17:58.362Z,-0.72
2022-12-04T00:18:30.461Z,-0.70
2022-12-04T00:19:05.143Z,-0.68
2022-12-04T00:19:37.237Z,-0.67
2022-12-04T00:20:10.194Z,-0.66
2022-12-04T00:20:44.870Z,-0.67
2022-12-04T00:21:18.188Z,-0.70
2022-12-04T00:21:53.584Z,-0.71
2022-12-04T00:22:25.785Z,-0.72
2022-12-04T00:22:57.833Z,-0.71
2022-12-04T00:23:29.914Z,-0.70
2022-12-04T00:24:04.748Z,-0.70
2022-12-04T00:24:36.890Z,-0.69
2022-12-04T00:25:11.628Z,-0.71
2022-12-04T00:25:48.798Z,-0.73
2022-12-04T00:26:22.474Z,-0.73
2022-12-04T00:26:54.579Z,-0.73
2022-12-04T00:27:29.252Z,-0.74
2022-12-04T00:28:01.385Z,-0.75
2022-12-04T00:28:33.918Z,-0.72
2022-12-04T00:29:08.626Z,-0.70
2022-12-04T00:29:40.719Z,-0.70
2022-12-04T00:30:13.804Z,-0.72
2022-12-04T00:30:50.008Z,-0.72
2022-12-04T00:31:25.308Z,-0.73
2022-12-04T00:31:57.485Z,-0.74
2022-12-04T00:32:33.020Z,-0.76
2022-12-04T00:33:05.107Z,-0.75
2022-12-04T00:33:38.781Z,-0.77
2022-12-04T00:34:13.750Z,-0.77
2022-12-04T00:34:45.931Z,-0.75
2022-12-04T00:35:18.209Z,-0.72
2022-12-04T00:36:00.090Z,-0.71
2022-12-04T00:36:32.323Z,-0.71
2022-12-04T00:37:04.433Z,-0.69
2022-12-04T00:37:39.106Z,-0.69
2022-12-04T00:38:11.201Z,-0.67
2022-12-04T00:38:44.687Z,-0.67
2022-12-04T00:39:19.372Z,-0.68
2022-12-04T00:39:51.517Z,-0.68
2022-12-04T00:40:26.267Z,-0.68
2022-12-04T00:41:01.048Z,-0.68
2022-12-04T00:41:33.649Z,-0.68
2022-12-04T00:42:08.399Z,-0.70
2022-12-04T00:42:40.523Z,-0.69
2022-12-04T00:43:12.600Z,-0.69
2022-12-04T00:43:47.909Z,-0.66
2022-12-04T00:44:19.973Z,-0.68
2022-12-04T00:44:52.182Z,-0.67
2022-12-04T00:45:27.018Z,-0.65
2022-12-04T00:45:59.565Z,-0.68
2022-12-04T00:46:31.725Z,-0.67
2022-12-04T00:47:06.526Z,-0.70
2022-12-04T00:47:38.585Z,-0.73
2022-12-04T00:48:10.717Z,-0.75
2022-12-04T00:48:46.110Z,-0.74
2022-12-04T00:49:18.194Z,-0.76
2022-12-04T00:49:50.352Z,-0.73
2022-12-04T00:50:25.428Z,-0.72
2022-12-04T00:51:02.234Z,-0.71
2022-12-04T00:51:36.981Z,-0.71
2022-12-04T00:52:09.036Z,-0.70
2022-12-04T00:52:41.159Z,-0.69
2022-12-04T00:53:16.107Z,-0.67
2022-12-04T00:53:48.550Z,-0.68
2022-12-04T00:54:20.668Z,-0.67
2022-12-04T00:54:55.543Z,-0.68
2022-12-04T00:55:30.258Z,-0.67
2022-12-04T00:56:04.699Z,-0.66
2022-12-04T00:56:39.448Z,-0.64
2022-12-04T00:57:11.585Z,-0.64
2022-12-04T00:57:43.688Z,-0.64
2022-12-04T00:58:18.415Z,-0.64
2022-12-04T00:58:52.511Z,-0.64
2022-12-04T00:59:24.572Z,-0.63
2022-12-04T00:59:59.344Z,-0.62
2022-12-04T01:00:32.194Z,-0.61
2022-12-04T01:01:06.208Z,-0.60
2022-12-04T01:01:41.021Z,-0.60
2022-12-04T01:02:13.148Z,-0.61
2022-12-04T01:02:45.638Z,-0.63
2022-12-04T01:03:20.402Z,-0.62
2022-12-04T01:03:54.008Z,-0.63
2022-12-04T01:04:26.153Z,-0.62
2022-12-04T01:05:00.843Z,-0.62
2022-12-04T01:05:37.885Z,-0.61
2022-12-04T01:06:18.878Z,-0.63
2022-12-04T01:06:53.694Z,-0.64
2022-12-04T01:07:25.756Z,-0.63
2022-12-04T01:07:58.067Z,-0.63
2022-12-04T01:08:32.809Z,-0.65
2022-12-04T01:09:06.009Z,-0.68
2022-12-04T01:09:38.128Z,-0.70
2022-12-04T01:10:15.745Z,-0.71
2022-12-04T01:10:50.617Z,-0.75
2022-12-04T01:11:24.174Z,-0.79
2022-12-04T01:11:58.932Z,-0.79
2022-12-04T01:12:31.059Z,-0.80
2022-12-04T01:13:03.150Z,-0.79
2022-12-04T01:13:37.820Z,-0.79
2022-12-04T01:14:10.061Z,-0.80
2022-12-04T01:14:44.770Z,-0.81
2022-12-04T01:15:17.159Z,-0.81
2022-12-04T01:15:49.534Z,-0.79
2022-12-04T01:16:26.028Z,-0.75
2022-12-04T01:16:58.271Z,-0.73
2022-12-04T01:17:30.439Z,-0.71
2022-12-04T01:18:05.089Z,-0.68
2022-12-04T01:18:37.206Z,-0.66
2022-12-04T01:19:12.091Z,-0.66
2022-12-04T01:19:46.915Z,-0.67
2022-12-04T01:20:19.050Z,-0.66
2022-12-04T01:20:52.673Z,-0.66
2022-12-04T01:21:27.463Z,-0.64
2022-12-04T01:21:59.583Z,-0.65
2022-12-04T01:22:31.843Z,-0.64
2022-12-04T01:23:03.938Z,-0.64
2022-12-04T01:23:38.585Z,-0.62
2022-12-04T01:24:10.969Z,-0.61
2022-12-04T01:24:43.437Z,-0.60
2022-12-04T01:25:18.169Z,-0.59
2022-12-04T01:25:55.505Z,-0.60
2022-12-04T01:26:28.100Z,-0.63
2022-12-04T01:27:02.814Z,-0.65
2022-12-04T01:27:35.305Z,-0.66
2022-12-04T01:28:07.387Z,-0.69
2022-12-04T01:28:39.800Z,-0.71
2022-12-04T01:29:14.577Z,-0.73
2022-12-04T01:29:46.715Z,-0.77
2022-12-04T01:30:18.995Z,-0.79
2022-12-04T01:31:04.361Z,-0.82
2022-12-04T01:31:36.750Z,-0.84
2022-12-04T01:32:08.928Z,-0.83
2022-12-04T01:32:43.740Z,-0.81
2022-12-04T01:33:15.811Z,-0.83
2022-12-04T01:33:49.096Z,-0.82
2022-12-04T01:34:25.345Z,-0.82
2022-12-04T01:34:57.585Z,-0.85
2022-12-04T01:35:29.653Z,-0.83
2022-12-04T01:36:06.789Z,-0.81
2022-12-04T01:36:38.920Z,-0.83
2022-12-04T01:37:13.676Z,-0.83
2022-12-04T01:37:45.825Z,-0.85
2022-12-04T01:38:17.914Z,-0.84
2022-12-04T01:38:52.752Z,-0.83
2022-12-04T01:39:24.830Z,-0.82
2022-12-04T01:39:57.312Z,-0.80
2022-12-04T01:40:29.553Z,-0.78
2022-12-04T01:41:08.203Z,-0.75
2022-12-04T01:41:40.360Z,-0.76
2022-12-04T01:42:13.614Z,-0.75
2022-12-04T01:42:48.306Z,-0.75
2022-12-04T01:43:21.814Z,-0.78
2022-12-04T01:44:11.514Z,-0.78
2022-12-04T01:45:07.354Z,-0.81
2022-12-04T01:45:41.916Z,-0.88
2022-12-04T01:46:14.194Z,-0.92
2022-12-04T01:46:50.443Z,-0.92
2022-12-04T01:47:22.545Z,-0.92
2022-12-04T01:47:58.250Z,-0.91
2022-12-04T01:48:35.584Z,-0.91
2022-12-04T01:49:10.151Z,-0.92
2022-12-04T01:49:47.252Z,-0.94
2022-12-04T01:50:21.956Z,-0.98
2022-12-04T01:50:58.742Z,-1.00
2022-12-04T01:51:35.367Z,-1.01
2022-12-04T01:52:15.034Z,-0.98
2022-12-04T01:52:47.146Z,-0.99
2022-12-04T01:53:20.447Z,-0.95
2022-12-04T01:53:57.504Z,-0.92
2022-12-04T01:54:32.640Z,-0.88
2022-12-04T01:55:05.812Z,-0.87
2022-12-04T01:55:40.725Z,-0.86
2022-12-04T01:56:17.128Z,-0.83
2022-12-04T01:56:53.481Z,-0.84
2022-12-04T01:57:29.489Z,-0.86
2022-12-04T01:58:02.051Z,-0.86
2022-12-04T01:58:39.874Z,-0.86
2022-12-04T01:59:17.136Z,-0.86
2022-12-04T01:59:52.697Z,-0.89
2022-12-04T02:00:25.208Z,-0.89
2022-12-04T02:01:07.865Z,-0.90
2022-12-04T02:01:49.428Z,-0.94
2022-12-04T02:02:26.305Z,-0.96
2022-12-04T02:02:58.880Z,-0.96
2022-12-04T02:03:33.918Z,-0.95
2022-12-04T02:04:06.302Z,-0.96
2022-12-04T02:04:40.437Z,-0.96
2022-12-04T02:05:14.027Z,-0.96
2022-12-04T02:05:48.760Z,-0.93
2022-12-04T02:06:21.014Z,-0.91
2022-12-04T02:06:53.153Z,-0.92
2022-12-04T02:07:27.909Z,-0.90
2022-12-04T02:08:04.852Z,-0.89
2022-12-04T02:08:40.535Z,-0.86
2022-12-04T02:09:12.761Z,-0.89
2022-12-04T02:09:45.617Z,-0.88
2022-12-04T02:10:24.692Z,-0.88
2022-12-04T02:11:10.338Z,-0.92
2022-12-04T02:11:54.784Z,-0.93
2022-12-04T02:12:33.054Z,-0.96
2022-12-04T02:13:13.442Z,-0.97
2022-12-04T02:13:51.974Z,-0.99
2022-12-04T02:14:33.284Z,-1.00
2022-12-04T02:15:17.395Z,-0.98
2022-12-04T02:15:57.910Z,-1.00
2022-12-04T02:16:42.273Z,-1.06
2022-12-04T02:17:22.656Z,-1.09
2022-12-04T02:18:03.447Z,-1.08
2022-12-04T02:18:47.756Z,-1.07
2022-12-04T02:19:43.021Z,-1.09
2022-12-04T02:20:25.854Z,-1.10
2022-12-04T02:21:03.358Z,-1.07
2022-12-04T02:21:38.838Z,-1.07
2022-12-04T02:22:27.357Z,-1.07
2022-12-04T02:23:26.014Z,-1.12
2022-12-04T02:24:24.334Z,-1.14
2022-12-04T02:25:03.106Z,-1.16
2022-12-04T02:25:45.409Z,-1.16
2022-12-04T02:26:32.766Z,-1.21
2022-12-04T02:27:16.954Z,-1.24
2022-12-04T02:28:02.599Z,-1.25
2022-12-04T02:28:43.259Z,-1.25
2022-12-04T02:29:25.995Z,-1.24
2022-12-04T02:30:01.392Z,-1.24
2022-12-04T02:30:40.032Z,-1.23
2022-12-04T02:31:18.541Z,-1.23
2022-12-04T02:31:55.893Z,-1.22
2022-12-04T02:32:38.862Z,-1.22
2022-12-04T02:33:19.303Z,-1.23
2022-12-04T02:34:02.093Z,-1.22
2022-12-04T02:34:42.050Z,-1.22
2022-12-04T02:35:22.051Z,-1.25
2022-12-04T02:36:01.847Z,-1.27
2022-12-04T02:36:39.343Z,-1.27
2022-12-04T02:37:18.826Z,-1.26
2022-12-04T02:37:56.806Z,-1.25
2022-12-04T02:38:35.769Z,-1.22
2022-12-04T02:39:14.058Z,-1.21
2022-12-04T02:39:52.488Z,-1.22
2022-12-04T02:40:29.415Z,-1.17
2022-12-04T02:41:10.569Z,-1.16
2022-12-04T02:41:49.095Z,-1.17
2022-12-04T02:42:26.898Z,-1.16
2022-12-04T02:43:11.512Z,-1.19
2022-12-04T02:43:46.953Z,-1.23
2022-12-04T02:44:24.927Z,-1.25
2022-12-04T02:45:00.672Z,-1.27
2022-12-04T02:45:39.846Z,-1.28
2022-12-04T02:46:22.436Z,-1.30
2022-12-04T02:46:58.522Z,-1.29
2022-12-04T02:47:32.395Z,-1.31
2022-12-04T02:48:10.254Z,-1.31
2022-12-04T02:48:46.814Z,-1.30
2022-12-04T02:49:23.967Z,-1.29
2022-12-04T02:50:02.058Z,-1.28
2022-12-04T02:50:37.644Z,-1.27
2022-12-04T02:51:14.710Z,-1.25
2022-12-04T02:51:52.113Z,-1.22
2022-12-04T02:52:31.510Z,-1.21
2022-12-04T02:53:07.811Z,-1.22
2022-12-04T02:53:48.733Z,-1.22
2022-12-04T02:54:25.824Z,-1.22
2022-12-04T02:55:06.864Z,-1.23
2022-12-04T02:55:47.778Z,-1.24
2022-12-04T02:56:24.525Z,-1.22
2022-12-04T02:57:01.570Z,-1.22
2022-12-04T02:57:38.759Z,-1.22
2022-12-04T02:58:16.933Z,-1.23
2022-12-04T02:58:55.679Z,-1.23
2022-12-04T02:59:32.304Z,-1.23
2022-12-04T03:00:08.353Z,-1.24
2022-12-04T03:00:46.849Z,-1.24
2022-12-04T03:01:25.084Z,-1.24
2022-12-04T03:02:03.281Z,-1.25
2022-12-04T03:02:42.270Z,-1.25
2022-12-04T03:03:19.158Z,-1.27
2022-12-04T03:03:57.729Z,-1.28
2022-12-04T03:04:33.653Z,-1.30
2022-12-04T03:05:10.465Z,-1.30
2022-12-04T03:05:49.900Z,-1.32
2022-12-04T03:06:26.622Z,-1.32
2022-12-04T03:07:03.126Z,-1.32
2022-12-04T03:07:40.362Z,-1.30
2022-12-04T03:08:19.047Z,-1.31
2022-12-04T03:08:55.588Z,-1.32
2022-12-04T03:09:36.731Z,-1.36
2022-12-04T03:10:14.501Z,-1.39
2022-12-04T03:10:51.142Z,-1.39
2022-12-04T03:11:27.651Z,-1.38
2022-12-04T03:12:07.295Z,-1.37
2022-12-04T03:12:44.572Z,-1.33
2022-12-04T03:13:25.600Z,-1.33
2022-12-04T03:14:02.513Z,-1.36
2022-12-04T03:14:39.252Z,-1.34
2022-12-04T03:15:19.948Z,-1.33
2022-12-04T03:15:56.539Z,-1.30
2022-12-04T03:16:33.036Z,-1.28
2022-12-04T03:17:12.106Z,-1.26
2022-12-04T03:17:51.174Z,-1.28
2022-12-04T03:18:29.659Z,-1.26
2022-12-04T03:19:08.263Z,-1.27
2022-12-04T03:19:48.305Z,-1.33
2022-12-04T03:20:21.939Z,-1.39
2022-12-04T03:21:01.025Z,-1.40
2022-12-04T03:21:40.800Z,-1.42
2022-12-04T03:22:16.649Z,-1.42
2022-12-04T03:22:53.473Z,-1.43
2022-12-04T03:23:33.990Z,-1.43
2022-12-04T03:24:13.758Z,-1.44
2022-12-04T03:24:50.325Z,-1.45
2022-12-04T03:25:29.147Z,-1.43
2022-12-04T03:26:05.001Z,-1.45
2022-12-04T03:26:42.332Z,-1.44
2022-12-04T03:27:20.385Z,-1.44
2022-12-04T03:27:56.853Z,-1.44
2022-12-04T03:28:38.950Z,-1.44
2022-12-04T03:29:16.909Z,-1.45
2022-12-04T03:29:55.250Z,-1.45
2022-12-04T03:30:38.110Z,-1.44
2022-12-04T03:31:11.651Z,-1.45
2022-12-04T03:31:46.947Z,-1.44
2022-12-04T03:32:29.076Z,-1.43
2022-12-04T03:33:08.063Z,-1.41
2022-12-04T03:33:46.308Z,-1.39
2022-12-04T03:34:25.139Z,-1.37
2022-12-04T03:35:01.480Z,-1.38
2022-12-04T03:35:40.559Z,-1.38
2022-12-04T03:36:18.539Z,-1.38
2022-12-04T03:36:56.058Z,-1.36
2022-12-04T03:37:38.946Z,-1.36
2022-12-04T03:38:18.587Z,-1.33
2022-12-04T03:38:58.148Z,-1.32
2022-12-04T03:39:38.163Z,-1.32
2022-12-04T03:40:22.629Z,-1.30
2022-12-04T03:41:01.778Z,-1.30
2022-12-04T03:41:50.069Z,-1.30
2022-12-04T03:42:28.634Z,-1.31
2022-12-04T03:43:04.608Z,-1.31
2022-12-04T03:43:49.261Z,-1.29
2022-12-04T03:44:30.560Z,-1.30
2022-12-04T03:45:09.449Z,-1.34
2022-12-04T03:45:50.896Z,-1.36
2022-12-04T03:46:28.296Z,-1.37
2022-12-04T03:47:05.395Z,-1.40
2022-12-04T03:47:45.922Z,-1.40
2022-12-04T03:48:23.331Z,-1.42
2022-12-04T03:49:02.482Z,-1.43
2022-12-04T03:49:46.688Z,-1.44
2022-12-04T03:50:26.426Z,-1.45
2022-12-04T03:51:05.067Z,-1.46
2022-12-04T03:51:42.374Z,-1.44
2022-12-04T03:52:20.915Z,-1.44
2022-12-04T03:53:00.455Z,-1.45
2022-12-04T03:53:40.997Z,-1.46
2022-12-04T03:54:18.214Z,-1.46
2022-12-04T03:54:55.943Z,-1.47
2022-12-04T03:55:33.954Z,-1.47
2022-12-04T03:56:13.550Z,-1.47
2022-12-04T03:56:51.798Z,-1.49
2022-12-04T03:57:30.165Z,-1.48
2022-12-04T03:58:09.487Z,-1.48
2022-12-04T03:58:47.413Z,-1.50
2022-12-04T03:59:27.041Z,-1.51
2022-12-04T04:00:06.495Z,-1.53
2022-12-04T04:00:41.911Z,-1.54
2022-12-04T04:01:19.302Z,-1.52
2022-12-04T04:01:52.716Z,-1.49
2022-12-04T04:02:30.564Z,-1.46
2022-12-04T04:03:11.696Z,-1.46
2022-12-04T04:03:47.762Z,-1.44
2022-12-04T04:04:26.414Z,-1.40
2022-12-04T04:05:04.177Z,-1.36
2022-12-04T04:05:38.507Z,-1.34
2022-12-04T04:06:14.608Z,-1.33
2022-12-04T04:06:53.613Z,-1.32
2022-12-04T04:07:35.560Z,-1.31
2022-12-04T04:08:31.171Z,-1.31
2022-12-04T04:09:15.753Z,-1.34
2022-12-04T04:09:50.775Z,-1.37
2022-12-04T04:10:25.430Z,-1.36
2022-12-04T04:11:05.839Z,-1.34
2022-12-04T04:11:42.013Z,-1.41
2022-12-04T04:12:17.469Z,-1.41
2022-12-04T04:13:09.875Z,-1.43
2022-12-04T04:14:06.887Z,-1.49
2022-12-04T04:14:58.607Z,-1.51
2022-12-04T04:15:45.826Z,-1.55
2022-12-04T04:16:36.880Z,-1.57
2022-12-04T04:17:32.266Z,-1.56
2022-12-04T04:18:22.182Z,-1.57
2022-12-04T04:19:10.787Z,-1.57
2022-12-04T04:20:00.041Z,-1.59
2022-12-04T04:20:52.368Z,-1.60
2022-12-04T04:21:45.189Z,-1.61
2022-12-04T04:22:34.476Z,-1.64
2022-12-04T04:23:36.443Z,-1.68
2022-12-04T04:24:18.730Z,-1.72
2022-12-04T04:24:55.320Z,-1.67
2022-12-04T04:25:29.192Z,-1.64
2022-12-04T04:26:06.772Z,-1.60
2022-12-04T04:26:44.054Z,-1.59
2022-12-04T04:27:16.214Z,-1.62
2022-12-04T04:27:55.241Z,-1.60
2022-12-04T04:28:32.331Z,-1.61
2022-12-04T04:29:07.116Z,-1.64
2022-12-04T04:29:43.334Z,-1.64
2022-12-04T04:30:17.891Z,-1.65
2022-12-04T04:30:50.045Z,-1.65
2022-12-04T04:31:30.045Z,-1.65
2022-12-04T04:32:08.589Z,-1.68
2022-12-04T04:32:48.286Z,-1.66
2022-12-04T04:33:21.894Z,-1.65
2022-12-04T04:33:59.795Z,-1.60
2022-12-04T04:34:43.818Z,-1.58
2022-12-04T04:35:21.233Z,-1.58
2022-12-04T04:35:57.735Z,-1.53
2022-12-04T04:36:40.693Z,-1.52
2022-12-04T04:37:21.074Z,-1.52
2022-12-04T04:38:01.837Z,-1.50
2022-12-04T04:38:45.629Z,-1.52
2022-12-04T04:39:25.598Z,-1.52
2022-12-04T04:40:08.079Z,-1.53
2022-12-04T04:40:48.595Z,-1.55
2022-12-04T04:41:27.332Z,-1.55
2022-12-04T04:42:07.121Z,-1.55
2022-12-04T04:42:45.900Z,-1.54
2022-12-04T04:43:27.700Z,-1.54
2022-12-04T04:44:12.076Z,-1.54
2022-12-04T04:44:52.811Z,-1.55
2022-12-04T04:45:29.919Z,-1.55
2022-12-04T04:46:06.134Z,-1.54
2022-12-04T04:46:45.459Z,-1.52
2022-12-04T04:47:21.877Z,-1.52
2022-12-04T04:47:58.769Z,-1.51
2022-12-04T04:48:38.662Z,-1.51
2022-12-04T04:49:14.194Z,-1.51
2022-12-04T04:49:47.609Z,-1.52
2022-12-04T04:50:23.713Z,-1.48
2022-12-04T04:50:56.643Z,-1.46
2022-12-04T04:51:31.175Z,-1.46
2022-12-04T04:52:06.204Z,-1.46
2022-12-04T04:52:41.786Z,-1.45
2022-12-04T04:53:19.944Z,-1.41
2022-12-04T04:53:58.389Z,-1.41
2022-12-04T04:54:34.041Z,-1.40
2022-12-04T04:55:08.271Z,-1.38
2022-12-04T04:55:43.777Z,-1.37
2022-12-04T04:56:16.282Z,-1.39
2022-12-04T04:56:48.722Z,-1.40
2022-12-04T04:57:31.284Z,-1.43
2022-12-04T04:58:11.407Z,-1.50
2022-12-04T04:58:46.434Z,-1.52
2022-12-04T04:59:21.186Z,-1.53
2022-12-04T04:59:53.823Z,-1.52
2022-12-04T05:00:29.054Z,-1.55
2022-12-04T05:01:04.272Z,-1.58
2022-12-04T05:01:38.597Z,-1.61
2022-12-04T05:02:13.525Z,-1.66
2022-12-04T05:02:45.757Z,-1.72
2022-12-04T05:03:18.008Z,-1.76
2022-12-04T05:03:52.924Z,-1.79
2022-12-04T05:04:25.015Z,-1.82
2022-12-04T05:04:57.165Z,-1.84
2022-12-04T05:05:31.830Z,-1.85
2022-12-04T05:06:04.028Z,-1.86
2022-12-04T05:06:36.281Z,-1.85
2022-12-04T05:07:10.996Z,-1.84
2022-12-04T05:07:43.232Z,-1.84
2022-12-04T05:08:15.491Z,-1.82
2022-12-04T05:08:50.230Z,-1.82
2022-12-04T05:09:22.410Z,-1.82
2022-12-04T05:09:54.787Z,-1.81
2022-12-04T05:10:29.676Z,-1.81
2022-12-04T05:11:02.012Z,-1.80
2022-12-04T05:11:34.169Z,-1.80
2022-12-04T05:12:09.242Z,-1.82
2022-12-04T05:12:41.353Z,-1.84
2022-12-04T05:13:14.416Z,-1.84
2022-12-04T05:13:49.070Z,-1.83
2022-12-04T05:14:23.706Z,-1.81
2022-12-04T05:14:55.907Z,-1.79
2022-12-04T05:15:30.545Z,-1.78
2022-12-04T05:16:05.300Z,-1.78
2022-12-04T05:16:39.350Z,-1.78
2022-12-04T05:17:14.049Z,-1.79
2022-12-04T05:17:46.130Z,-1.79
2022-12-04T05:18:18.297Z,-1.79
2022-12-04T05:19:05.260Z,-1.81
2022-12-04T05:19:52.435Z,-1.84
2022-12-04T05:20:27.204Z,-1.89
2022-12-04T05:20:59.284Z,-1.89
2022-12-04T05:21:31.471Z,-1.86
2022-12-04T05:22:03.593Z,-1.86
2022-12-04T05:22:39.842Z,-1.86
2022-12-04T05:23:11.948Z,-1.84
2022-12-04T05:23:44.268Z,-1.84
2022-12-04T05:24:18.929Z,-1.82
2022-12-04T05:24:51.080Z,-1.81
2022-12-04T05:25:23.643Z,-1.79
2022-12-04T05:26:02.918Z,-1.78
2022-12-04T05:26:35.101Z,-1.77
2022-12-04T05:27:07.163Z,-1.76
2022-12-04T05:27:41.858Z,-1.78
2022-12-04T05:28:14.033Z,-1.78
2022-12-04T05:28:46.221Z,-1.77
2022-12-04T05:29:20.988Z,-1.75
2022-12-04T05:29:57.745Z,-1.75
2022-12-04T05:30:30.093Z,-1.79
2022-12-04T05:31:06.489Z,-1.80
2022-12-04T05:31:38.665Z,-1.79
2022-12-04T05:32:10.792Z,-1.78
2022-12-04T05:32:45.490Z,-1.76
2022-12-04T05:33:17.559Z,-1.75
2022-12-04T05:33:49.654Z,-1.72
2022-12-04T05:34:24.410Z,-1.68
2022-12-04T05:34:58.467Z,-1.64
2022-12-04T05:35:33.226Z,-1.64
2022-12-04T05:36:08.014Z,-1.64
2022-12-04T05:36:40.146Z,-1.64
2022-12-04T05:37:14.845Z,-1.65
2022-12-04T05:37:47.008Z,-1.66
2022-12-04T05:38:19.112Z,-1.64
2022-12-04T05:38:53.891Z,-1.65
2022-12-04T05:39:26.097Z,-1.67
2022-12-04T05:39:58.564Z,-1.68
2022-12-04T05:40:33.554Z,-1.70
2022-12-04T05:41:07.358Z,-1.71
2022-12-04T05:41:39.450Z,-1.71
2022-12-04T05:42:14.561Z,-1.71
2022-12-04T05:42:46.641Z,-1.76
2022-12-04T05:43:18.889Z,-1.75
2022-12-04T05:43:50.994Z,-1.76
2022-12-04T05:44:25.715Z,-1.77
2022-12-04T05:45:00.408Z,-1.80
2022-12-04T05:45:32.486Z,-1.80
2022-12-04T05:46:08.821Z,-1.79
2022-12-04T05:46:41.075Z,-1.79
2022-12-04T05:47:13.254Z,-1.84
2022-12-04T05:47:48.209Z,-1.87
2022-12-04T05:48:20.863Z,-1.90
2022-12-04T05:48:52.930Z,-1.91
2022-12-04T05:49:25.273Z,-1.87
2022-12-04T05:49:59.996Z,-1.87
2022-12-04T05:50:32.085Z,-1.86
2022-12-04T05:51:06.709Z,-1.84
2022-12-04T05:51:41.415Z,-1.84
2022-12-04T05:52:13.614Z,-1.85
2022-12-04T05:52:48.261Z,-1.85
2022-12-04T05:53:20.353Z,-1.86
2022-12-04T05:53:52.874Z,-1.85
2022-12-04T05:54:27.876Z,-1.87
2022-12-04T05:55:00.069Z,-1.87
2022-12-04T05:55:32.163Z,-1.87
2022-12-04T05:56:08.990Z,-1.86
2022-12-04T05:56:41.130Z,-1.88
2022-12-04T05:57:13.221Z,-1.88
2022-12-04T05:57:47.912Z,-1.89
2022-12-04T05:58:19.979Z,-1.91
2022-12-04T05:58:52.139Z,-1.91
2022-12-04T05:59:26.921Z,-1.90
2022-12-04T06:00:01.636Z,-1.91
2022-12-04T06:00:33.741Z,-1.93
2022-12-04T06:01:16.622Z,-1.94
2022-12-04T06:01:48.812Z,-1.95
2022-12-04T06:02:23.629Z,-1.95
2022-12-04T06:02:55.871Z,-1.95
2022-12-04T06:03:28.048Z,-1.98
2022-12-04T06:04:02.850Z,-2.00
2022-12-04T06:04:36.848Z,-2.00
2022-12-04T06:05:09.260Z,-2.00
2022-12-04T06:05:44.094Z,-2.00
2022-12-04T06:06:21.842Z,-2.00
2022-12-04T06:06:58.016Z,-2.01
2022-12-04T06:07:30.175Z,-2.00
2022-12-04T06:08:02.368Z,-2.00
2022-12-04T06:08:34.475Z,-2.00
2022-12-04T06:09:10.707Z,-1.99
2022-12-04T06:09:42.786Z,-1.98
2022-12-04T06:10:14.863Z,-1.96
2022-12-04T06:10:49.565Z,-1.96
2022-12-04T06:11:24.220Z,-1.98
2022-12-04T06:11:58.024Z,-1.99
2022-12-04T06:12:32.862Z,-1.99
2022-12-04T06:13:05.408Z,-1.98
2022-12-04T06:13:37.512Z,-1.95
2022-12-04T06:14:15.945Z,-1.96
2022-12-04T06:14:48.047Z,-2.01
2022-12-04T06:15:22.703Z,-1.97
2022-12-04T06:15:57.954Z,-1.96
2022-12-04T06:16:32.845Z,-1.95
2022-12-04T06:17:07.586Z,-1.97
2022-12-04T06:17:39.670Z,-1.97
2022-12-04T06:18:11.765Z,-1.94
2022-12-04T06:18:44.228Z,-1.91
2022-12-04T06:19:21.352Z,-1.91
2022-12-04T06:19:54.021Z,-1.91
2022-12-04T06:20:26.557Z,-1.93
2022-12-04T06:20:58.956Z,-1.93
2022-12-04T06:21:35.789Z,-1.94
2022-12-04T06:22:07.868Z,-1.98
2022-12-04T06:22:39.964Z,-2.00
2022-12-04T06:23:14.641Z,-2.03
2022-12-04T06:23:47.046Z,-2.04
2022-12-04T06:24:21.749Z,-2.07
2022-12-04T06:24:56.428Z,-2.09
2022-12-04T06:25:28.569Z,-2.10
2022-12-04T06:26:06.917Z,-2.10
2022-12-04T06:27:04.156Z,-2.14
2022-12-04T06:27:34.660Z,-2.14
2022-12-04T06:28:06.753Z,-2.13
2022-12-04T06:28:41.671Z,-2.13
2022-12-04T06:29:14.214Z,-2.13
2022-12-04T06:29:46.567Z,-2.14
2022-12-04T06:30:21.400Z,-2.14
2022-12-04T06:30:56.084Z,-2.14
2022-12-04T06:31:30.197Z,-2.15
2022-12-04T06:32:05.111Z,-2.13
2022-12-04T06:32:37.387Z,-2.13
2022-12-04T06:33:09.507Z,-2.13
2022-12-04T06:33:44.365Z,-2.13
2022-12-04T06:34:16.794Z,-2.11
2022-12-04T06:34:51.595Z,-2.11
2022-12-04T06:35:26.282Z,-2.12
2022-12-04T06:35:59.749Z,-2.13
2022-12-04T06:36:32.452Z,-2.11
2022-12-04T06:37:07.121Z,-2.12
2022-12-04T06:37:39.293Z,-2.13
2022-12-04T06:38:13.266Z,-2.12
2022-12-04T06:38:48.198Z,-2.11
2022-12-04T06:39:20.349Z,-2.12
2022-12-04T06:39:52.831Z,-2.10
2022-12-04T06:40:27.630Z,-2.09
2022-12-04T06:41:00.511Z,-2.09
2022-12-04T06:41:32.668Z,-2.08
2022-12-04T06:42:07.481Z,-2.07
2022-12-04T06:42:39.533Z,-2.06
2022-12-04T06:43:14.238Z,-2.05
2022-12-04T06:43:46.564Z,-2.04
2022-12-04T06:44:18.638Z,-2.04
2022-12-04T06:44:53.536Z,-2.02
2022-12-04T06:45:25.793Z,-2.02
2022-12-04T06:46:05.626Z,-2.00
2022-12-04T06:46:46.241Z,-2.01
2022-12-04T06:47:19.071Z,-2.02
2022-12-04T06:47:51.152Z,-2.04
2022-12-04T06:48:23.277Z,-2.09
2022-12-04T06:48:59.280Z,-2.05
2022-12-04T06:49:31.558Z,-2.08
2022-12-04T06:50:07.105Z,-2.09
2022-12-04T06:50:39.300Z,-2.11
2022-12-04T06:51:13.203Z,-2.11
2022-12-04T06:51:47.896Z,-2.14
2022-12-04T06:52:19.973Z,-2.15
2022-12-04T06:52:52.083Z,-2.13
2022-12-04T06:53:24.174Z,-2.13
2022-12-04T06:53:59.031Z,-2.10
2022-12-04T06:54:31.227Z,-2.11
2022-12-04T06:55:03.387Z,-2.10
2022-12-04T06:55:38.075Z,-2.05
2022-12-04T06:56:14.450Z,-2.03
2022-12-04T06:56:49.129Z,-2.01
2022-12-04T06:57:21.266Z,-1.99
2022-12-04T06:57:53.396Z,-1.98
2022-12-04T06:58:29.515Z,-2.02
2022-12-04T06:59:03.276Z,-2.04
2022-12-04T06:59:36.117Z,-2.05
2022-12-04T07:00:12.263Z,-2.04
2022-12-04T07:00:44.385Z,-2.04
2022-12-04T07:01:20.764Z,-2.00
2022-12-04T07:01:55.604Z,-2.01
2022-12-04T07:02:27.770Z,-1.99
2022-12-04T07:02:59.885Z,-1.98
2022-12-04T07:03:34.649Z,-1.95
2022-12-04T07:04:07.587Z,-1.92
2022-12-04T07:04:39.659Z,-1.88
2022-12-04T07:05:14.966Z,-1.85
2022-12-04T07:05:47.418Z,-1.82
2022-12-04T07:06:21.463Z,-1.78
2022-12-04T07:06:56.167Z,-1.77
2022-12-04T07:07:28.309Z,-1.75
2022-12-04T07:08:00.542Z,-1.72
2022-12-04T07:08:32.739Z,-1.71
2022-12-04T07:09:09.827Z,-1.70
2022-12-04T07:09:41.918Z,-1.71
2022-12-04T07:10:14.007Z,-1.71
2022-12-04T07:10:46.106Z,-1.70
2022-12-04T07:11:21.465Z,-1.71
2022-12-04T07:11:55.122Z,-1.73
2022-12-04T07:12:27.233Z,-1.73
2022-12-04T07:13:01.903Z,-1.75
2022-12-04T07:13:34.085Z,-1.76
2022-12-04T07:14:07.008Z,-1.78
2022-12-04T07:14:41.773Z,-1.81
2022-12-04T07:15:13.910Z,-1.85
2022-12-04T07:15:46.033Z,-1.87
2022-12-04T07:16:24.837Z,-1.86
2022-12-04T07:16:57.156Z,-1.88
2022-12-04T07:17:29.333Z,-1.90
2022-12-04T07:18:04.234Z,-1.90
2022-12-04T07:18:37.084Z,-1.94
2022-12-04T07:19:09.419Z,-1.95
2022-12-04T07:19:44.148Z,-1.95
2022-12-04T07:20:16.288Z,-1.97
2022-12-04T07:20:48.628Z,-2.00
2022-12-04T07:21:28.053Z,-2.00
2022-12-04T07:22:00.186Z,-2.04
2022-12-04T07:22:32.293Z,-2.04
2022-12-04T07:23:07.502Z,-2.00
2022-12-04T07:23:39.746Z,-2.00
2022-12-04T07:24:15.607Z,-1.94
2022-12-04T07:24:50.326Z,-1.90
2022-12-04T07:25:22.743Z,-1.87
2022-12-04T07:25:54.902Z,-1.83
2022-12-04T07:26:31.112Z,-1.77
2022-12-04T07:27:03.278Z,-1.76
2022-12-04T07:27:35.468Z,-1.76
2022-12-04T07:28:10.218Z,-1.76
2022-12-04T07:28:42.299Z,-1.74
2022-12-04T07:29:14.706Z,-1.72
2022-12-04T07:29:49.401Z,-1.70
2022-12-04T07:30:21.498Z,-1.72
2022-12-04T07:30:53.613Z,-1.72
2022-12-04T07:31:32.505Z,-1.72
2022-12-04T07:32:04.905Z,-1.74
2022-12-04T07:32:37.047Z,-1.74
2022-12-04T07:33:11.759Z,-1.76
2022-12-04T07:33:44.766Z,-1.76
2022-12-04T07:34:19.423Z,-1.75
2022-12-04T07:34:51.651Z,-1.75
2022-12-04T07:35:23.899Z,-1.74
2022-12-04T07:35:59.158Z,-1.74
2022-12-04T07:36:31.401Z,-1.75
2022-12-04T07:37:06.225Z,-1.74
2022-12-04T07:37:38.344Z,-1.74
2022-12-04T07:38:10.378Z,-1.73
2022-12-04T07:38:45.796Z,-1.71
2022-12-04T07:39:17.875Z,-1.71
2022-12-04T07:39:52.290Z,-1.71
2022-12-04T07:40:27.105Z,-1.70
2022-12-04T07:41:00.030Z,-1.68
2022-12-04T07:41:32.343Z,-1.65